sensor_id;sensor_type;location;lat;lon;timestamp;P1;durP1;ratioP1;P2;durP2;ratioP2
26953;SDS011;14508;50.924;11.600;2023-02-03T00:01:26;2.60;;;1.02;;
26953;SDS011;14508;50.924;11.600;2023-02-03T00:03:56;2.42;;;1.27;;
26953;SDS011;14508;50.924;11.600;2023-02-03T00:06:24;1.63;;;0.85;;
26953;SDS011;14508;50.924;11.600;2023-02-03T00:08:52;1.30;;;1.00;;
26953;SDS011;14508;50.924;11.600;2023-02-03T00:11:22;1.25;;;0.93;;
26953;SDS011;14508;50.924;11.600;2023-02-03T00:13:50;1.02;;;0.77;;
26953;SDS011;14508;50.924;11.600;2023-02-03T00:16:17;2.38;;;1.15;;
26953;SDS011;14508;50.924;11.600;2023-02-03T00:18:45;1.42;;;1.00;;
26953;SDS011;14508;50.924;11.600;2023-02-03T00:21:14;1.35;;;1.10;;
26953;SDS011;14508;50.924;11.600;2023-02-03T00:23:42;2.55;;;1.40;;
26953;SDS011;14508;50.924;11.600;2023-02-03T00:26:11;2.42;;;1.98;;
26953;SDS011;14508;50.924;11.600;2023-02-03T00:28:42;1.50;;;1.30;;
26953;SDS011;14508;50.924;11.600;2023-02-03T00:31:14;2.55;;;1.75;;
26953;SDS011;14508;50.924;11.600;2023-02-03T00:33:44;2.67;;;1.48;;
26953;SDS011;14508;50.924;11.600;2023-02-03T00:36:12;2.00;;;1.30;;
26953;SDS011;14508;50.924;11.600;2023-02-03T00:38:42;4.38;;;2.00;;
26953;SDS011;14508;50.924;11.600;2023-02-03T00:41:09;3.25;;;1.95;;
26953;SDS011;14508;50.924;11.600;2023-02-03T00:43:37;3.83;;;1.98;;
26953;SDS011;14508;50.924;11.600;2023-02-03T00:46:06;2.72;;;1.90;;
26953;SDS011;14508;50.924;11.600;2023-02-03T00:48:34;4.13;;;2.13;;
26953;SDS011;14508;50.924;11.600;2023-02-03T00:51:02;2.50;;;1.48;;
26953;SDS011;14508;50.924;11.600;2023-02-03T00:53:31;5.03;;;2.08;;
26953;SDS011;14508;50.924;11.600;2023-02-03T00:56:00;4.10;;;2.15;;
26953;SDS011;14508;50.924;11.600;2023-02-03T00:58:28;5.50;;;2.85;;
26953;SDS011;14508;50.924;11.600;2023-02-03T01:00:55;4.93;;;2.20;;
26953;SDS011;14508;50.924;11.600;2023-02-03T01:03:23;4.70;;;2.40;;
26953;SDS011;14508;50.924;11.600;2023-02-03T01:05:51;2.97;;;1.95;;
26953;SDS011;14508;50.924;11.600;2023-02-03T01:08:19;4.53;;;2.70;;
26953;SDS011;14508;50.924;11.600;2023-02-03T01:10:50;3.75;;;2.13;;
26953;SDS011;14508;50.924;11.600;2023-02-03T01:13:18;3.75;;;2.28;;
26953;SDS011;14508;50.924;11.600;2023-02-03T01:15:46;4.43;;;2.40;;
26953;SDS011;14508;50.924;11.600;2023-02-03T01:18:14;3.80;;;2.30;;
26953;SDS011;14508;50.924;11.600;2023-02-03T01:20:42;2.58;;;1.83;;
26953;SDS011;14508;50.924;11.600;2023-02-03T01:23:10;4.13;;;2.10;;
26953;SDS011;14508;50.924;11.600;2023-02-03T01:25:38;3.95;;;2.33;;
26953;SDS011;14508;50.924;11.600;2023-02-03T01:28:07;2.95;;;1.85;;
26953;SDS011;14508;50.924;11.600;2023-02-03T01:30:35;3.55;;;2.30;;
26953;SDS011;14508;50.924;11.600;2023-02-03T01:33:03;4.20;;;2.58;;
26953;SDS011;14508;50.924;11.600;2023-02-03T01:35:32;1.85;;;1.63;;
26953;SDS011;14508;50.924;11.600;2023-02-03T01:38:01;3.15;;;1.90;;
26953;SDS011;14508;50.924;11.600;2023-02-03T01:40:30;5.30;;;2.03;;
26953;SDS011;14508;50.924;11.600;2023-02-03T01:42:58;3.08;;;1.85;;
26953;SDS011;14508;50.924;11.600;2023-02-03T01:45:27;3.33;;;2.40;;
26953;SDS011;14508;50.924;11.600;2023-02-03T01:47:56;1.90;;;1.35;;
26953;SDS011;14508;50.924;11.600;2023-02-03T01:50:26;4.57;;;2.13;;
26953;SDS011;14508;50.924;11.600;2023-02-03T01:52:58;3.00;;;2.05;;
26953;SDS011;14508;50.924;11.600;2023-02-03T01:55:29;3.63;;;2.13;;
26953;SDS011;14508;50.924;11.600;2023-02-03T01:58:01;3.13;;;2.00;;
26953;SDS011;14508;50.924;11.600;2023-02-03T02:00:34;5.53;;;2.22;;
26953;SDS011;14508;50.924;11.600;2023-02-03T02:03:02;3.60;;;2.00;;
26953;SDS011;14508;50.924;11.600;2023-02-03T02:05:33;2.42;;;1.80;;
26953;SDS011;14508;50.924;11.600;2023-02-03T02:08:03;3.40;;;2.13;;
26953;SDS011;14508;50.924;11.600;2023-02-03T02:10:32;2.30;;;1.63;;
26953;SDS011;14508;50.924;11.600;2023-02-03T02:13:01;6.18;;;2.08;;
26953;SDS011;14508;50.924;11.600;2023-02-03T02:15:32;3.00;;;1.77;;
26953;SDS011;14508;50.924;11.600;2023-02-03T02:18:15;2.60;;;1.98;;
26953;SDS011;14508;50.924;11.600;2023-02-03T02:20:55;3.65;;;1.98;;
26953;SDS011;14508;50.924;11.600;2023-02-03T02:26:49;5.32;;;2.10;;
26953;SDS011;14508;50.924;11.600;2023-02-03T02:32:29;2.42;;;1.70;;
26953;SDS011;14508;50.924;11.600;2023-02-03T02:35:09;4.75;;;1.90;;
26953;SDS011;14508;50.924;11.600;2023-02-03T02:37:48;5.43;;;2.45;;
26953;SDS011;14508;50.924;11.600;2023-02-03T02:40:27;3.53;;;2.25;;
26953;SDS011;14508;50.924;11.600;2023-02-03T02:43:06;3.42;;;2.13;;
26953;SDS011;14508;50.924;11.600;2023-02-03T02:45:42;4.80;;;2.60;;
26953;SDS011;14508;50.924;11.600;2023-02-03T02:48:16;5.68;;;3.38;;
26953;SDS011;14508;50.924;11.600;2023-02-03T02:50:50;4.60;;;2.78;;
26953;SDS011;14508;50.924;11.600;2023-02-03T02:53:20;5.13;;;2.97;;
26953;SDS011;14508;50.924;11.600;2023-02-03T02:55:52;5.90;;;3.08;;
26953;SDS011;14508;50.924;11.600;2023-02-03T02:58:23;5.13;;;2.80;;
26953;SDS011;14508;50.924;11.600;2023-02-03T03:00:53;5.03;;;2.90;;
26953;SDS011;14508;50.924;11.600;2023-02-03T03:03:23;4.93;;;2.85;;
26953;SDS011;14508;50.924;11.600;2023-02-03T03:05:52;8.93;;;3.63;;
26953;SDS011;14508;50.924;11.600;2023-02-03T03:08:29;6.05;;;3.55;;
26953;SDS011;14508;50.924;11.600;2023-02-03T03:10:59;4.93;;;3.50;;
26953;SDS011;14508;50.924;11.600;2023-02-03T03:13:29;7.38;;;3.67;;
26953;SDS011;14508;50.924;11.600;2023-02-03T03:16:00;5.22;;;3.50;;
26953;SDS011;14508;50.924;11.600;2023-02-03T03:18:35;8.57;;;4.25;;
26953;SDS011;14508;50.924;11.600;2023-02-03T03:21:09;6.60;;;3.95;;
26953;SDS011;14508;50.924;11.600;2023-02-03T03:23:42;7.10;;;4.22;;
26953;SDS011;14508;50.924;11.600;2023-02-03T03:26:13;12.02;;;4.90;;
26953;SDS011;14508;50.924;11.600;2023-02-03T03:28:45;10.45;;;4.72;;
26953;SDS011;14508;50.924;11.600;2023-02-03T03:31:15;9.20;;;4.38;;
26953;SDS011;14508;50.924;11.600;2023-02-03T03:33:46;8.95;;;4.68;;
26953;SDS011;14508;50.924;11.600;2023-02-03T03:36:18;7.75;;;4.40;;
26953;SDS011;14508;50.924;11.600;2023-02-03T03:38:52;10.77;;;4.15;;
26953;SDS011;14508;50.924;11.600;2023-02-03T03:41:26;8.48;;;4.65;;
26953;SDS011;14508;50.924;11.600;2023-02-03T03:44:02;9.20;;;4.65;;
26953;SDS011;14508;50.924;11.600;2023-02-03T03:46:34;12.35;;;4.15;;
26953;SDS011;14508;50.924;11.600;2023-02-03T03:49:07;7.57;;;4.47;;
26953;SDS011;14508;50.924;11.600;2023-02-03T03:51:39;8.73;;;5.10;;
26953;SDS011;14508;50.924;11.600;2023-02-03T03:54:11;8.32;;;5.05;;
26953;SDS011;14508;50.924;11.600;2023-02-03T03:56:44;8.93;;;5.25;;
26953;SDS011;14508;50.924;11.600;2023-02-03T03:59:17;6.50;;;4.55;;
26953;SDS011;14508;50.924;11.600;2023-02-03T04:01:48;9.98;;;4.85;;
26953;SDS011;14508;50.924;11.600;2023-02-03T04:04:19;6.55;;;4.15;;
26953;SDS011;14508;50.924;11.600;2023-02-03T04:06:49;6.47;;;4.30;;
26953;SDS011;14508;50.924;11.600;2023-02-03T04:09:19;14.15;;;4.32;;
26953;SDS011;14508;50.924;11.600;2023-02-03T04:11:47;8.60;;;4.25;;
26953;SDS011;14508;50.924;11.600;2023-02-03T04:14:28;6.47;;;4.05;;
26953;SDS011;14508;50.924;11.600;2023-02-03T04:16:56;5.80;;;4.03;;
26953;SDS011;14508;50.924;11.600;2023-02-03T04:19:26;9.38;;;4.03;;
26953;SDS011;14508;50.924;11.600;2023-02-03T04:21:54;7.55;;;3.80;;
26953;SDS011;14508;50.924;11.600;2023-02-03T04:24:22;10.23;;;3.92;;
26953;SDS011;14508;50.924;11.600;2023-02-03T04:26:50;8.68;;;4.57;;
26953;SDS011;14508;50.924;11.600;2023-02-03T04:29:18;7.57;;;4.50;;
26953;SDS011;14508;50.924;11.600;2023-02-03T04:31:46;8.73;;;4.20;;
26953;SDS011;14508;50.924;11.600;2023-02-03T04:34:14;8.57;;;4.47;;
26953;SDS011;14508;50.924;11.600;2023-02-03T04:36:43;19.65;;;5.13;;
26953;SDS011;14508;50.924;11.600;2023-02-03T04:39:11;8.77;;;4.10;;
26953;SDS011;14508;50.924;11.600;2023-02-03T04:41:39;10.23;;;4.03;;
26953;SDS011;14508;50.924;11.600;2023-02-03T04:44:06;5.72;;;3.55;;
26953;SDS011;14508;50.924;11.600;2023-02-03T04:46:34;8.40;;;4.00;;
26953;SDS011;14508;50.924;11.600;2023-02-03T04:49:02;10.75;;;5.00;;
26953;SDS011;14508;50.924;11.600;2023-02-03T04:51:30;11.95;;;5.70;;
26953;SDS011;14508;50.924;11.600;2023-02-03T04:53:59;12.25;;;6.32;;
26953;SDS011;14508;50.924;11.600;2023-02-03T04:56:27;5.00;;;3.50;;
26953;SDS011;14508;50.924;11.600;2023-02-03T04:58:55;9.02;;;4.10;;
26953;SDS011;14508;50.924;11.600;2023-02-03T05:01:23;6.65;;;4.20;;
26953;SDS011;14508;50.924;11.600;2023-02-03T05:03:50;5.78;;;3.47;;
26953;SDS011;14508;50.924;11.600;2023-02-03T05:06:21;6.28;;;3.85;;
26953;SDS011;14508;50.924;11.600;2023-02-03T05:08:49;6.57;;;3.10;;
26953;SDS011;14508;50.924;11.600;2023-02-03T05:11:18;5.35;;;3.15;;
26953;SDS011;14508;50.924;11.600;2023-02-03T05:13:46;5.70;;;2.67;;
26953;SDS011;14508;50.924;11.600;2023-02-03T05:16:15;4.60;;;3.38;;
26953;SDS011;14508;50.924;11.600;2023-02-03T05:18:42;4.03;;;2.40;;
26953;SDS011;14508;50.924;11.600;2023-02-03T05:21:11;4.32;;;2.40;;
26953;SDS011;14508;50.924;11.600;2023-02-03T05:23:38;5.05;;;2.53;;
26953;SDS011;14508;50.924;11.600;2023-02-03T05:26:06;4.57;;;2.63;;
26953;SDS011;14508;50.924;11.600;2023-02-03T05:28:36;5.43;;;2.08;;
26953;SDS011;14508;50.924;11.600;2023-02-03T05:31:04;3.38;;;2.20;;
26953;SDS011;14508;50.924;11.600;2023-02-03T05:33:31;6.20;;;2.30;;
26953;SDS011;14508;50.924;11.600;2023-02-03T05:35:59;3.60;;;2.08;;
26953;SDS011;14508;50.924;11.600;2023-02-03T05:38:27;3.47;;;1.65;;
26953;SDS011;14508;50.924;11.600;2023-02-03T05:40:55;2.20;;;1.83;;
26953;SDS011;14508;50.924;11.600;2023-02-03T05:43:42;4.05;;;1.73;;
26953;SDS011;14508;50.924;11.600;2023-02-03T05:46:10;3.45;;;1.70;;
26953;SDS011;14508;50.924;11.600;2023-02-03T05:48:38;3.42;;;1.80;;
26953;SDS011;14508;50.924;11.600;2023-02-03T05:51:06;6.03;;;1.77;;
26953;SDS011;14508;50.924;11.600;2023-02-03T05:53:34;3.13;;;1.80;;
26953;SDS011;14508;50.924;11.600;2023-02-03T05:56:02;5.28;;;2.17;;
26953;SDS011;14508;50.924;11.600;2023-02-03T05:58:29;5.00;;;2.10;;
26953;SDS011;14508;50.924;11.600;2023-02-03T06:00:59;4.70;;;2.25;;
26953;SDS011;14508;50.924;11.600;2023-02-03T06:03:27;2.90;;;1.90;;
26953;SDS011;14508;50.924;11.600;2023-02-03T06:05:54;3.95;;;2.35;;
26953;SDS011;14508;50.924;11.600;2023-02-03T06:08:24;3.03;;;1.98;;
26953;SDS011;14508;50.924;11.600;2023-02-03T06:10:56;5.97;;;2.58;;
26953;SDS011;14508;50.924;11.600;2023-02-03T06:13:25;3.08;;;1.77;;
26953;SDS011;14508;50.924;11.600;2023-02-03T06:15:54;3.80;;;2.10;;
26953;SDS011;14508;50.924;11.600;2023-02-03T06:18:24;3.65;;;2.28;;
26953;SDS011;14508;50.924;11.600;2023-02-03T06:20:51;7.57;;;2.90;;
26953;SDS011;14508;50.924;11.600;2023-02-03T06:23:19;3.15;;;1.67;;
26953;SDS011;14508;50.924;11.600;2023-02-03T06:25:49;3.47;;;2.03;;
26953;SDS011;14508;50.924;11.600;2023-02-03T06:28:17;2.75;;;1.92;;
26953;SDS011;14508;50.924;11.600;2023-02-03T06:30:48;2.65;;;1.95;;
26953;SDS011;14508;50.924;11.600;2023-02-03T06:33:17;2.72;;;1.42;;
26953;SDS011;14508;50.924;11.600;2023-02-03T06:35:46;3.60;;;1.85;;
26953;SDS011;14508;50.924;11.600;2023-02-03T06:38:14;18.27;;;6.97;;
26953;SDS011;14508;50.924;11.600;2023-02-03T06:40:44;3.63;;;2.10;;
26953;SDS011;14508;50.924;11.600;2023-02-03T06:43:12;5.25;;;2.42;;
26953;SDS011;14508;50.924;11.600;2023-02-03T06:45:41;5.30;;;2.83;;
26953;SDS011;14508;50.924;11.600;2023-02-03T06:48:12;3.72;;;2.22;;
26953;SDS011;14508;50.924;11.600;2023-02-03T06:50:41;4.25;;;1.95;;
26953;SDS011;14508;50.924;11.600;2023-02-03T06:53:10;7.63;;;3.67;;
26953;SDS011;14508;50.924;11.600;2023-02-03T06:55:38;8.65;;;2.70;;
26953;SDS011;14508;50.924;11.600;2023-02-03T06:58:06;3.95;;;3.00;;
26953;SDS011;14508;50.924;11.600;2023-02-03T07:00:34;5.60;;;3.03;;
26953;SDS011;14508;50.924;11.600;2023-02-03T07:03:03;4.88;;;2.28;;
26953;SDS011;14508;50.924;11.600;2023-02-03T07:05:31;6.13;;;2.05;;
26953;SDS011;14508;50.924;11.600;2023-02-03T07:08:03;7.07;;;3.00;;
26953;SDS011;14508;50.924;11.600;2023-02-03T07:10:32;2.72;;;2.05;;
26953;SDS011;14508;50.924;11.600;2023-02-03T07:13:01;5.68;;;2.35;;
26953;SDS011;14508;50.924;11.600;2023-02-03T07:15:29;3.63;;;2.28;;
26953;SDS011;14508;50.924;11.600;2023-02-03T07:17:57;5.47;;;2.42;;
26953;SDS011;14508;50.924;11.600;2023-02-03T07:20:25;5.15;;;2.58;;
26953;SDS011;14508;50.924;11.600;2023-02-03T07:22:55;5.43;;;2.58;;
26953;SDS011;14508;50.924;11.600;2023-02-03T07:25:24;3.97;;;2.20;;
26953;SDS011;14508;50.924;11.600;2023-02-03T07:27:54;6.18;;;2.45;;
26953;SDS011;14508;50.924;11.600;2023-02-03T07:30:22;8.75;;;3.72;;
26953;SDS011;14508;50.924;11.600;2023-02-03T07:32:50;9.48;;;3.05;;
26953;SDS011;14508;50.924;11.600;2023-02-03T07:35:19;6.75;;;2.30;;
26953;SDS011;14508;50.924;11.600;2023-02-03T07:37:47;4.30;;;2.60;;
26953;SDS011;14508;50.924;11.600;2023-02-03T07:40:15;4.95;;;2.42;;
26953;SDS011;14508;50.924;11.600;2023-02-03T07:42:44;4.70;;;2.55;;
26953;SDS011;14508;50.924;11.600;2023-02-03T07:45:15;3.63;;;2.00;;
26953;SDS011;14508;50.924;11.600;2023-02-03T07:47:44;6.50;;;2.22;;
26953;SDS011;14508;50.924;11.600;2023-02-03T07:50:12;5.43;;;2.20;;
26953;SDS011;14508;50.924;11.600;2023-02-03T07:52:39;5.00;;;2.20;;
26953;SDS011;14508;50.924;11.600;2023-02-03T07:55:08;10.25;;;3.47;;
26953;SDS011;14508;50.924;11.600;2023-02-03T07:57:36;9.93;;;2.45;;
26953;SDS011;14508;50.924;11.600;2023-02-03T08:00:09;7.80;;;2.78;;
26953;SDS011;14508;50.924;11.600;2023-02-03T08:02:39;6.55;;;1.98;;
26953;SDS011;14508;50.924;11.600;2023-02-03T08:05:07;4.78;;;1.98;;
26953;SDS011;14508;50.924;11.600;2023-02-03T08:07:37;7.80;;;1.98;;
26953;SDS011;14508;50.924;11.600;2023-02-03T08:10:05;3.92;;;2.03;;
26953;SDS011;14508;50.924;11.600;2023-02-03T08:12:34;4.95;;;2.25;;
26953;SDS011;14508;50.924;11.600;2023-02-03T08:15:02;3.78;;;1.52;;
26953;SDS011;14508;50.924;11.600;2023-02-03T08:17:31;4.50;;;2.75;;
26953;SDS011;14508;50.924;11.600;2023-02-03T08:20:01;4.78;;;2.60;;
26953;SDS011;14508;50.924;11.600;2023-02-03T08:22:29;5.72;;;2.22;;
26953;SDS011;14508;50.924;11.600;2023-02-03T08:24:56;5.75;;;2.20;;
26953;SDS011;14508;50.924;11.600;2023-02-03T08:27:24;3.70;;;1.95;;
26953;SDS011;14508;50.924;11.600;2023-02-03T08:29:52;4.85;;;1.92;;
26953;SDS011;14508;50.924;11.600;2023-02-03T08:32:21;3.20;;;1.88;;
26953;SDS011;14508;50.924;11.600;2023-02-03T08:34:50;4.85;;;2.00;;
26953;SDS011;14508;50.924;11.600;2023-02-03T08:37:21;3.90;;;1.40;;
26953;SDS011;14508;50.924;11.600;2023-02-03T08:39:49;4.35;;;2.28;;
26953;SDS011;14508;50.924;11.600;2023-02-03T08:42:18;4.65;;;1.92;;
26953;SDS011;14508;50.924;11.600;2023-02-03T08:44:46;9.27;;;2.40;;
26953;SDS011;14508;50.924;11.600;2023-02-03T08:47:14;3.67;;;1.60;;
26953;SDS011;14508;50.924;11.600;2023-02-03T08:49:44;5.05;;;2.00;;
26953;SDS011;14508;50.924;11.600;2023-02-03T08:52:12;5.00;;;2.40;;
26953;SDS011;14508;50.924;11.600;2023-02-03T08:54:45;9.68;;;4.35;;
26953;SDS011;14508;50.924;11.600;2023-02-03T08:57:14;2.20;;;2.00;;
26953;SDS011;14508;50.924;11.600;2023-02-03T08:59:42;3.80;;;1.60;;
26953;SDS011;14508;50.924;11.600;2023-02-03T09:02:12;4.28;;;2.10;;
26953;SDS011;14508;50.924;11.600;2023-02-03T09:04:43;2.88;;;1.85;;
26953;SDS011;14508;50.924;11.600;2023-02-03T09:07:12;3.03;;;1.65;;
26953;SDS011;14508;50.924;11.600;2023-02-03T09:09:41;4.65;;;1.73;;
26953;SDS011;14508;50.924;11.600;2023-02-03T09:12:11;3.50;;;1.90;;
26953;SDS011;14508;50.924;11.600;2023-02-03T09:14:39;2.95;;;1.73;;
26953;SDS011;14508;50.924;11.600;2023-02-03T09:17:07;6.50;;;1.88;;
26953;SDS011;14508;50.924;11.600;2023-02-03T09:19:37;2.58;;;1.38;;
26953;SDS011;14508;50.924;11.600;2023-02-03T09:22:05;3.92;;;1.98;;
26953;SDS011;14508;50.924;11.600;2023-02-03T09:24:33;6.35;;;1.90;;
26953;SDS011;14508;50.924;11.600;2023-02-03T09:27:01;5.35;;;1.95;;
26953;SDS011;14508;50.924;11.600;2023-02-03T09:29:31;2.42;;;1.45;;
26953;SDS011;14508;50.924;11.600;2023-02-03T09:31:58;3.15;;;1.60;;
26953;SDS011;14508;50.924;11.600;2023-02-03T09:34:32;3.20;;;1.10;;
26953;SDS011;14508;50.924;11.600;2023-02-03T09:37:00;4.75;;;2.40;;
26953;SDS011;14508;50.924;11.600;2023-02-03T09:39:29;4.05;;;1.88;;
26953;SDS011;14508;50.924;11.600;2023-02-03T09:42:15;3.78;;;1.55;;
26953;SDS011;14508;50.924;11.600;2023-02-03T09:44:57;4.55;;;1.40;;
26953;SDS011;14508;50.924;11.600;2023-02-03T09:47:35;2.90;;;1.42;;
26953;SDS011;14508;50.924;11.600;2023-02-03T09:50:09;2.90;;;1.50;;
26953;SDS011;14508;50.924;11.600;2023-02-03T09:52:40;4.18;;;1.38;;
26953;SDS011;14508;50.924;11.600;2023-02-03T09:55:12;6.07;;;1.40;;
26953;SDS011;14508;50.924;11.600;2023-02-03T09:57:51;3.40;;;1.20;;
26953;SDS011;14508;50.924;11.600;2023-02-03T10:00:26;4.05;;;1.67;;
26953;SDS011;14508;50.924;11.600;2023-02-03T10:02:58;5.10;;;1.25;;
26953;SDS011;14508;50.924;11.600;2023-02-03T10:05:37;2.15;;;1.13;;
26953;SDS011;14508;50.924;11.600;2023-02-03T10:08:16;1.95;;;1.08;;
26953;SDS011;14508;50.924;11.600;2023-02-03T10:10:52;6.18;;;1.08;;
26953;SDS011;14508;50.924;11.600;2023-02-03T10:13:39;1.33;;;1.10;;
26953;SDS011;14508;50.924;11.600;2023-02-03T10:19:10;1.75;;;1.08;;
26953;SDS011;14508;50.924;11.600;2023-02-03T10:21:42;2.42;;;1.05;;
26953;SDS011;14508;50.924;11.600;2023-02-03T10:24:14;2.42;;;1.08;;
26953;SDS011;14508;50.924;11.600;2023-02-03T10:26:46;4.55;;;0.90;;
26953;SDS011;14508;50.924;11.600;2023-02-03T10:29:17;3.22;;;1.00;;
26953;SDS011;14508;50.924;11.600;2023-02-03T10:31:47;4.35;;;1.55;;
26953;SDS011;14508;50.924;11.600;2023-02-03T10:34:16;2.75;;;1.20;;
26953;SDS011;14508;50.924;11.600;2023-02-03T10:36:48;1.00;;;0.85;;
26953;SDS011;14508;50.924;11.600;2023-02-03T10:39:23;1.35;;;0.90;;
26953;SDS011;14508;50.924;11.600;2023-02-03T10:41:57;1.48;;;1.23;;
26953;SDS011;14508;50.924;11.600;2023-02-03T10:44:28;4.10;;;0.90;;
26953;SDS011;14508;50.924;11.600;2023-02-03T10:47:07;1.95;;;0.95;;
26953;SDS011;14508;50.924;11.600;2023-02-03T10:49:41;2.83;;;1.00;;
26953;SDS011;14508;50.924;11.600;2023-02-03T10:52:22;1.63;;;0.80;;
26953;SDS011;14508;50.924;11.600;2023-02-03T10:54:53;0.50;;;0.50;;
26953;SDS011;14508;50.924;11.600;2023-02-03T10:57:24;1.00;;;0.77;;
26953;SDS011;14508;50.924;11.600;2023-02-03T11:00:03;1.50;;;0.90;;
26953;SDS011;14508;50.924;11.600;2023-02-03T11:02:54;3.08;;;1.08;;
26953;SDS011;14508;50.924;11.600;2023-02-03T11:05:25;0.60;;;0.60;;
26953;SDS011;14508;50.924;11.600;2023-02-03T11:07:53;2.45;;;0.98;;
26953;SDS011;14508;50.924;11.600;2023-02-03T11:10:25;3.20;;;0.90;;
26953;SDS011;14508;50.924;11.600;2023-02-03T11:13:14;1.02;;;0.90;;
26953;SDS011;14508;50.924;11.600;2023-02-03T11:15:54;0.82;;;0.80;;
26953;SDS011;14508;50.924;11.600;2023-02-03T11:18:36;2.45;;;0.93;;
26953;SDS011;14508;50.924;11.600;2023-02-03T11:21:11;0.88;;;0.50;;
26953;SDS011;14508;50.924;11.600;2023-02-03T11:23:43;2.28;;;0.90;;
26953;SDS011;14508;50.924;11.600;2023-02-03T11:26:18;4.53;;;0.60;;
26953;SDS011;14508;50.924;11.600;2023-02-03T11:28:49;1.77;;;0.60;;
26953;SDS011;14508;50.924;11.600;2023-02-03T11:31:19;2.03;;;1.38;;
26953;SDS011;14508;50.924;11.600;2023-02-03T11:33:56;0.50;;;0.50;;
26953;SDS011;14508;50.924;11.600;2023-02-03T11:36:27;0.85;;;0.40;;
26953;SDS011;14508;50.924;11.600;2023-02-03T11:39:07;0.70;;;0.50;;
26953;SDS011;14508;50.924;11.600;2023-02-03T11:41:37;0.40;;;0.40;;
26953;SDS011;14508;50.924;11.600;2023-02-03T11:44:09;0.82;;;0.52;;
26953;SDS011;14508;50.924;11.600;2023-02-03T11:46:38;0.68;;;0.55;;
26953;SDS011;14508;50.924;11.600;2023-02-03T11:49:11;0.75;;;0.75;;
26953;SDS011;14508;50.924;11.600;2023-02-03T11:52:03;0.70;;;0.70;;
26953;SDS011;14508;50.924;11.600;2023-02-03T11:54:45;1.33;;;0.75;;
26953;SDS011;14508;50.924;11.600;2023-02-03T11:57:23;1.75;;;0.75;;
26953;SDS011;14508;50.924;11.600;2023-02-03T12:00:06;0.60;;;0.50;;
26953;SDS011;14508;50.924;11.600;2023-02-03T12:06:15;0.80;;;0.70;;
26953;SDS011;14508;50.924;11.600;2023-02-03T12:08:58;0.57;;;0.57;;
26953;SDS011;14508;50.924;11.600;2023-02-03T12:11:38;0.68;;;0.68;;
26953;SDS011;14508;50.924;11.600;2023-02-03T12:14:21;1.48;;;0.70;;
26953;SDS011;14508;50.924;11.600;2023-02-03T12:17:02;2.22;;;0.80;;
26953;SDS011;14508;50.924;11.600;2023-02-03T12:19:47;1.35;;;0.80;;
26953;SDS011;14508;50.924;11.600;2023-02-03T12:22:28;0.98;;;0.63;;
26953;SDS011;14508;50.924;11.600;2023-02-03T12:25:03;1.08;;;0.93;;
26953;SDS011;14508;50.924;11.600;2023-02-03T12:27:39;0.88;;;0.88;;
26953;SDS011;14508;50.924;11.600;2023-02-03T12:30:17;0.85;;;0.80;;
26953;SDS011;14508;50.924;11.600;2023-02-03T12:32:50;1.55;;;1.23;;
26953;SDS011;14508;50.924;11.600;2023-02-03T12:35:25;3.53;;;1.08;;
26953;SDS011;14508;50.924;11.600;2023-02-03T12:38:00;2.42;;;1.60;;
26953;SDS011;14508;50.924;11.600;2023-02-03T12:40:34;2.63;;;1.08;;
26953;SDS011;14508;50.924;11.600;2023-02-03T12:43:17;1.30;;;1.15;;
26953;SDS011;14508;50.924;11.600;2023-02-03T12:45:51;1.45;;;1.15;;
26953;SDS011;14508;50.924;11.600;2023-02-03T12:48:22;2.70;;;1.30;;
26953;SDS011;14508;50.924;11.600;2023-02-03T12:50:52;3.35;;;1.30;;
26953;SDS011;14508;50.924;11.600;2023-02-03T12:53:29;2.83;;;1.25;;
26953;SDS011;14508;50.924;11.600;2023-02-03T12:56:02;1.38;;;1.25;;
26953;SDS011;14508;50.924;11.600;2023-02-03T12:58:36;2.17;;;1.35;;
26953;SDS011;14508;50.924;11.600;2023-02-03T13:01:08;1.67;;;1.10;;
26953;SDS011;14508;50.924;11.600;2023-02-03T13:03:41;1.40;;;1.10;;
26953;SDS011;14508;50.924;11.600;2023-02-03T13:06:16;5.95;;;1.33;;
26953;SDS011;14508;50.924;11.600;2023-02-03T13:08:55;1.58;;;1.15;;
26953;SDS011;14508;50.924;11.600;2023-02-03T13:11:28;2.08;;;1.27;;
26953;SDS011;14508;50.924;11.600;2023-02-03T13:14:02;1.48;;;1.13;;
26953;SDS011;14508;50.924;11.600;2023-02-03T13:16:38;3.72;;;1.52;;
26953;SDS011;14508;50.924;11.600;2023-02-03T13:19:10;2.25;;;1.35;;
26953;SDS011;14508;50.924;11.600;2023-02-03T13:21:43;3.45;;;1.40;;
26953;SDS011;14508;50.924;11.600;2023-02-03T13:24:15;1.75;;;1.48;;
26953;SDS011;14508;50.924;11.600;2023-02-03T13:29:41;2.03;;;1.50;;
26953;SDS011;14508;50.924;11.600;2023-02-03T13:32:22;1.60;;;1.50;;
26953;SDS011;14508;50.924;11.600;2023-02-03T13:35:09;3.93;;;1.57;;
26953;SDS011;14508;50.924;11.600;2023-02-03T13:38:06;2.60;;;1.80;;
26953;SDS011;14508;50.924;11.600;2023-02-03T13:41:03;2.63;;;1.75;;
26953;SDS011;14508;50.924;11.600;2023-02-03T13:43:34;3.78;;;1.13;;
26953;SDS011;14508;50.924;11.600;2023-02-03T13:46:05;10.23;;;1.73;;
26953;SDS011;14508;50.924;11.600;2023-02-03T13:48:45;3.78;;;1.00;;
26953;SDS011;14508;50.924;11.600;2023-02-03T13:51:15;4.25;;;0.80;;
26953;SDS011;14508;50.924;11.600;2023-02-03T13:53:47;1.77;;;0.80;;
26953;SDS011;14508;50.924;11.600;2023-02-03T13:56:19;5.53;;;1.20;;
26953;SDS011;14508;50.924;11.600;2023-02-03T13:58:57;3.97;;;1.08;;
26953;SDS011;14508;50.924;11.600;2023-02-03T14:01:32;2.50;;;0.88;;
26953;SDS011;14508;50.924;11.600;2023-02-03T14:04:04;7.22;;;1.40;;
26953;SDS011;14508;50.924;11.600;2023-02-03T14:09:38;8.05;;;1.50;;
26953;SDS011;14508;50.924;11.600;2023-02-03T14:12:18;6.05;;;2.42;;
26953;SDS011;14508;50.924;11.600;2023-02-03T14:15:21;4.28;;;1.65;;
26953;SDS011;14508;50.924;11.600;2023-02-03T14:18:00;5.78;;;1.23;;
26953;SDS011;14508;50.924;11.600;2023-02-03T14:20:39;7.32;;;2.92;;
26953;SDS011;14508;50.924;11.600;2023-02-03T14:23:26;5.70;;;1.20;;
26953;SDS011;14508;50.924;11.600;2023-02-03T14:26:05;10.25;;;1.60;;
26953;SDS011;14508;50.924;11.600;2023-02-03T14:28:47;13.63;;;7.07;;
26953;SDS011;14508;50.924;11.600;2023-02-03T14:31:19;13.55;;;2.97;;
26953;SDS011;14508;50.924;11.600;2023-02-03T14:33:55;7.78;;;2.15;;
26953;SDS011;14508;50.924;11.600;2023-02-03T14:36:32;7.53;;;2.45;;
26953;SDS011;14508;50.924;11.600;2023-02-03T14:39:24;8.88;;;1.35;;
26953;SDS011;14508;50.924;11.600;2023-02-03T14:42:30;10.68;;;1.70;;
26953;SDS011;14508;50.924;11.600;2023-02-03T14:45:13;11.35;;;2.22;;
26953;SDS011;14508;50.924;11.600;2023-02-03T14:47:49;14.13;;;1.48;;
26953;SDS011;14508;50.924;11.600;2023-02-03T14:50:30;9.88;;;2.15;;
26953;SDS011;14508;50.924;11.600;2023-02-03T14:53:17;12.35;;;2.45;;
26953;SDS011;14508;50.924;11.600;2023-02-03T14:55:56;8.77;;;1.33;;
26953;SDS011;14508;50.924;11.600;2023-02-03T14:58:34;22.30;;;3.40;;
26953;SDS011;14508;50.924;11.600;2023-02-03T15:01:21;20.80;;;2.38;;
26953;SDS011;14508;50.924;11.600;2023-02-03T15:06:47;13.13;;;2.42;;
26953;SDS011;14508;50.924;11.600;2023-02-03T15:09:19;13.75;;;2.95;;
26953;SDS011;14508;50.924;11.600;2023-02-03T15:11:52;11.02;;;2.25;;
26953;SDS011;14508;50.924;11.600;2023-02-03T15:14:21;13.98;;;2.08;;
26953;SDS011;14508;50.924;11.600;2023-02-03T15:16:56;6.47;;;1.95;;
26953;SDS011;14508;50.924;11.600;2023-02-03T15:21:55;10.80;;;1.90;;
26953;SDS011;14508;50.924;11.600;2023-02-03T15:24:23;18.90;;;3.25;;
26953;SDS011;14508;50.924;11.600;2023-02-03T15:26:52;12.45;;;2.28;;